This is the latest recevied weather packets stored in our database for station/object SA3PJN-WX. If no packets are shown the sender has not sent any weather packets the latest 10 day(s).
| Time | Temp. | Humidity | Pressure | Rain* | Wind** | Luminosity | Snow |
|---|---|---|---|---|---|---|---|
| 1778213715 | 6.11° C | 56% | 978 hPa | - | - | - | - |
| 1778213385 | 6.11° C | 56% | 978 hPa | - | - | - | - |
| 1778213085 | 6.11° C | 55% | 978 hPa | - | - | - | - |
| 1778212785 | 6.11° C | 54% | 977.5 hPa | - | - | - | - |
| 1778212485 | 6.11° C | 53% | 977.6 hPa | - | - | - | - |
| 1778212185 | 5.56° C | 54% | 977.6 hPa | - | - | - | - |
| 1778211885 | 6.11° C | 54% | 977.5 hPa | - | - | - | - |
| 1778211585 | 6.67° C | 55% | 978 hPa | - | - | - | - |
| 1778211285 | 5.56° C | 61% | 977.5 hPa | - | - | - | - |
| 1778210955 | 3.89° C | 62% | 977.4 hPa | - | - | - | - |
| 1778210655 | 3.89° C | 64% | 977.4 hPa | - | - | - | - |
| 1778210355 | 3.89° C | 65% | 977.4 hPa | - | - | - | - |
| 1778210054 | 3.33° C | 68% | 977.4 hPa | - | - | - | - |
| 1778209755 | 2.78° C | 72% | 977.4 hPa | - | - | - | - |
| 1778209454 | 1.67° C | 76% | 977.5 hPa | - | - | - | - |
| 1778209125 | 0.56° C | 80% | 977.3 hPa | - | - | - | - |
| 1778208824 | 0° C | 84% | 977.3 hPa | - | - | - | - |
| 1778208524 | -0.56° C | 87% | 977.2 hPa | - | - | - | - |
| 1778208225 | -0.56° C | 86% | 977.2 hPa | - | - | - | - |
| 1778207925 | -1.11° C | 87% | 977.2 hPa | - | - | - | - |
| 1778207594 | -1.11° C | 86% | 977.3 hPa | - | - | - | - |
| 1778207294 | -1.11° C | 85% | 977.3 hPa | - | - | - | - |
| 1778206994 | -0.56° C | 83% | 977.3 hPa | - | - | - | - |
| 1778206664 | -0.56° C | 81% | 977.3 hPa | - | - | - | - |
| 1778206334 | 0° C | 81% | 977.2 hPa | - | - | - | - |
* Rain since midnight (hover to see other rain measurements)
** Current wind speed in m/s (hover to see current wind gust speed)